Red Lake Airport
CYRL : now visible

Airfield :











YOU CAN JOIN US ON...

 
LOGIN :

Register | Disclaimer

   EN    FR    IT 

 









Legend :    VFR   Marginal VFR   IFR   Intensive IFR   Very Intensive IFR
Visi :
Ceiling :
>= 8 km
>= 3000ft
5 to 8 km
1000 to 3000 ft
1500m to 5 km
500 to 1000 ft
800 to 1500m
200 to 500 ft
< 800m
< 200 ft
Symbols :   Thunderstorms  Fog  Heavy snow  Heavy precipitations  Wind > 20 kt






- Airport Elevation : 1265 ft
- IATA code : YRL


CYRL - Red Lake

CURRENT METAR :
  • 101800Z 33007KT 15SM FEW010 BKN030 07/01 A2973 RMK SC2SC5 SLP083

EXPIRED METARs :
  • 101700Z 34006KT 15SM FEW010 OVC030 05/03 A2973 RMK SC2SC6 SLP085
  • 101621Z 33006KT 290V360 15SM SCT011 OVC017 04/02 A2973 RMK SC3SC5 SLP087
  • 101600Z 29004KT 270V350 15SM OVC011 04/03 A2974 RMK SC8 SLP089
  • 101554Z 31003KT 15SM OVC011 04/03 A2974 RMK SC8 SLP089

TAF TAF CYRL
Valid from the 10 at 14:00 until the 11 at 02:00 UTC


101341Z 1014/1102 33006KT 3SM -DZ BR OVC007
TEMPO 1014/1016 P6SM NSW SCT007 OVC015
FM101600 33006KT P6SM OVC015
TEMPO 1016/1019 BKN025
FM101900 35006KT P6SM BKN030
TEMPO 1019/1101 BKN020
FM110100 03005KT P6SM BKN020 RMK NXT FCST BY 102000Z
CZWG FIR / North America



MET'MAP, your aeronautical weather chart ! - Copyright ORBIFLY December 2007 - Disclaimer

ORBIFLY MET'MAP TEAM :

Programming & Development : Alexandra Zaïnal
Concept & original design : Baudouin d'Aumeries
Assistance for programming : Marc-Olivier Méhu
Technical & hardware support : Manuel Goepfert

Contact : metmap@orbifly.com




SOURCES & CREDITS :

   NOAA       Earth
Advisory